Hauptseite
METAR-TAF:

METAR-TAF

Flughäfen :

Tingo María, Peru

Breite: 09-17-15S, Länge: 076-00-18W, Höhe: 654 m

Beobachtung

Neuester Wetterbericht von vor 17 Minuten, um 20:00 UTC
Wind 3 kt aus Ost/Südost
Temperatur 31°C
Luftfeuchtigkeit 59%
Luftdruck 1015 hPa
Sichtweite 10 km oder mehr
Aufgelockert bewölkt in der Höhe von 4000 ft
Durchbrochene Bewölkung in der Höhe von 10000 ft

METAR: SPGM 252000Z 11003KT 9999 SCT040 BKN100 31/22 Q1015 RMK PP000

Zeit: 15:17 (20:17 UTC)

Prognose

Neuester Wetterbericht von vor 3 Stunden und 17 Minuten, um 17:00 UTC
Gültige Prognose vom 25 um 18 UTC bis 26 um 18 UTC
Wind 5 kt aus Nord
Sichtweite 10 km oder mehr
Leicht bewölkt in der Höhe von 1500 ft
Aufgelockert bewölkt in der Höhe von 10000 ft

TAF: SPGM 251700Z 2518/2618 01005KT 9999 FEW015 SCT100 TX31/2520Z TN20/2611Z

Wetterbeobachtungen und Prognosen von mehr als 4000 Flughäfen (METAR und TAF Bericht).

Die verfügbaren Stationen werden durch gelbe und rote Markierungen auf der Karte dargestellt.

Führen Sie die Maus auf sie, um den Namen der Station zu sehen.

Darauf klicken, um die Beobachtung von Wetterbeobachtungen und Prognosen zu sehen.

Um die Karte zu ändern : klicken Sie auf den grünen Tasten mit einem schwarzen Kreuz Zum Vergrößern, auf den grünen Button mit einem Gedankenstrich zu verkleinern, oder auf die grünen Pfeile für benachbarte Karten.


METAR-TAF: